createdAt,value
2022-08-18T00:01:11.476Z,18.30
2022-08-18T00:03:56.431Z,18.40
2022-08-18T00:06:29.912Z,18.40
2022-08-18T00:09:03.071Z,18.40
2022-08-18T00:11:40.447Z,18.40
2022-08-18T00:14:13.867Z,18.30
2022-08-18T00:16:52.675Z,18.20
2022-08-18T00:19:19.814Z,18.20
2022-08-18T00:21:46.648Z,18.20
2022-08-18T00:24:13.483Z,18.30
2022-08-18T00:26:40.294Z,18.30
2022-08-18T00:29:08.346Z,18.20
2022-08-18T00:31:35.157Z,18.20
2022-08-18T00:34:02.231Z,18.10
2022-08-18T00:36:31.714Z,18.00
2022-08-18T00:38:58.618Z,18.00
2022-08-18T00:41:26.882Z,18.00
2022-08-18T00:43:55.589Z,18.10
2022-08-18T00:46:26.671Z,18.10
2022-08-18T00:48:53.556Z,18.00
2022-08-18T00:51:35.016Z,18.00
2022-08-18T00:54:19.196Z,18.00
2022-08-18T00:56:48.939Z,18.10
2022-08-18T00:59:28.056Z,18.00
2022-08-18T01:01:56.692Z,18.00
2022-08-18T01:04:28.085Z,18.00
2022-08-18T01:07:01.796Z,18.00
2022-08-18T01:09:28.844Z,18.00
2022-08-18T01:11:56.584Z,17.90
2022-08-18T01:14:23.994Z,17.90
2022-08-18T01:17:11.158Z,17.90
2022-08-18T01:19:56.695Z,17.80
2022-08-18T01:22:29.563Z,17.80
2022-08-18T01:25:17.472Z,17.80
2022-08-18T01:27:44.567Z,17.80
2022-08-18T01:30:15.237Z,17.70
2022-08-18T01:32:45.928Z,17.70
2022-08-18T01:35:15.389Z,17.70
2022-08-18T01:37:42.612Z,17.70
2022-08-18T01:41:23.965Z,17.70
2022-08-18T01:43:01.177Z,17.70
2022-08-18T01:45:28.126Z,17.70
2022-08-18T01:47:55.950Z,17.60
2022-08-18T01:50:22.792Z,17.50
2022-08-18T01:52:50.070Z,17.40
2022-08-18T01:55:18.335Z,17.40
2022-08-18T01:57:46.103Z,17.40
2022-08-18T02:00:15.840Z,17.50
2022-08-18T02:02:43.225Z,17.40
2022-08-18T02:05:15.422Z,17.40
2022-08-18T02:07:42.684Z,17.40
2022-08-18T02:10:12.486Z,17.40
2022-08-18T02:12:43.536Z,17.40
2022-08-18T02:15:12.098Z,17.40
2022-08-18T02:17:40.174Z,17.40
2022-08-18T02:20:12.291Z,17.30
2022-08-18T02:22:39.938Z,17.40
2022-08-18T02:25:07.410Z,17.40
2022-08-18T02:27:35.365Z,17.30
2022-08-18T02:30:07.973Z,17.30
2022-08-18T02:32:35.326Z,17.30
2022-08-18T02:35:04.627Z,17.20
2022-08-18T02:37:36.565Z,17.20
2022-08-18T02:40:05.673Z,17.10
2022-08-18T02:42:32.577Z,16.90
2022-08-18T02:44:59.429Z,16.90
2022-08-18T02:47:30.250Z,16.90
2022-08-18T02:49:59.893Z,16.90
2022-08-18T02:52:44.755Z,17.00
2022-08-18T02:55:12.373Z,17.00
2022-08-18T02:57:43.969Z,17.00
2022-08-18T03:00:14.228Z,16.90
2022-08-18T03:02:42.077Z,16.90
2022-08-18T03:05:10.970Z,16.90
2022-08-18T03:07:41.842Z,16.90
2022-08-18T03:10:32.892Z,16.90
2022-08-18T03:12:56.953Z,16.90
2022-08-18T03:15:23.883Z,16.90
2022-08-18T03:17:53.571Z,16.80
2022-08-18T03:20:31.078Z,16.80
2022-08-18T03:22:58.554Z,16.70
2022-08-18T03:25:25.370Z,16.70
2022-08-18T03:27:52.274Z,16.70
2022-08-18T03:30:19.271Z,16.60
2022-08-18T03:32:47.879Z,16.50
2022-08-18T03:35:14.847Z,16.40
2022-08-18T03:37:41.701Z,16.40
2022-08-18T03:40:11.184Z,16.50
2022-08-18T03:42:38.414Z,16.40
2022-08-18T03:45:13.072Z,16.40
2022-08-18T03:47:46.053Z,16.40
2022-08-18T03:50:14.138Z,16.40
2022-08-18T03:52:41.475Z,16.40
2022-08-18T03:55:09.432Z,16.40
2022-08-18T03:57:38.965Z,16.40
2022-08-18T04:00:06.794Z,16.40
2022-08-18T04:02:33.623Z,16.40
2022-08-18T04:05:02.659Z,16.40
2022-08-18T04:07:32.744Z,16.40
2022-08-18T04:09:59.534Z,16.40
2022-08-18T04:12:26.414Z,16.40
2022-08-18T04:14:53.556Z,16.30
2022-08-18T04:17:25.310Z,16.30
2022-08-18T04:19:53.936Z,16.30
2022-08-18T04:22:21.393Z,16.30
2022-08-18T04:24:50.350Z,16.30
2022-08-18T04:27:19.607Z,16.30
2022-08-18T04:29:47.183Z,16.30
2022-08-18T04:32:14.099Z,16.30
2022-08-18T04:34:40.998Z,16.30
2022-08-18T04:37:09.577Z,16.30
2022-08-18T04:39:37.518Z,16.20
2022-08-18T04:42:05.928Z,16.20
2022-08-18T04:44:33.129Z,16.20
2022-08-18T04:47:01.130Z,16.20
2022-08-18T04:49:28.287Z,16.20
2022-08-18T04:52:37.264Z,16.20
2022-08-18T04:55:03.024Z,16.10
2022-08-18T04:57:33.601Z,16.10
2022-08-18T05:00:01.997Z,16.10
2022-08-18T05:02:30.085Z,16.10
2022-08-18T05:04:56.945Z,16.10
2022-08-18T05:07:23.859Z,16.00
2022-08-18T05:09:52.052Z,16.00
2022-08-18T05:12:18.983Z,15.90
2022-08-18T05:14:48.554Z,15.90
2022-08-18T05:17:16.320Z,15.90
2022-08-18T05:19:46.700Z,16.00
2022-08-18T05:22:18.475Z,15.90
2022-08-18T05:24:45.631Z,15.90
2022-08-18T05:27:13.200Z,15.90
2022-08-18T05:29:45.582Z,16.00
2022-08-18T05:32:37.135Z,16.00
2022-08-18T05:35:09.630Z,16.10
2022-08-18T05:37:47.787Z,16.10
2022-08-18T05:40:15.110Z,16.00
2022-08-18T05:42:42.664Z,16.00
2022-08-18T05:45:16.448Z,16.10
2022-08-18T05:47:43.738Z,16.10
2022-08-18T05:50:13.438Z,16.20
2022-08-18T05:52:53.254Z,16.20
2022-08-18T05:55:48.338Z,16.20
2022-08-18T05:58:18.803Z,16.20
2022-08-18T06:00:59.760Z,16.20
2022-08-18T06:03:45.034Z,16.30
2022-08-18T06:06:19.534Z,16.30
2022-08-18T06:09:01.810Z,16.30
2022-08-18T06:11:29.483Z,16.30
2022-08-18T06:13:59.280Z,16.30
2022-08-18T06:16:39.144Z,16.40
2022-08-18T06:19:29.393Z,16.50
2022-08-18T06:22:21.916Z,16.50
2022-08-18T06:24:51.678Z,16.50
2022-08-18T06:27:51.662Z,16.60
2022-08-18T06:30:27.390Z,16.60
2022-08-18T06:33:13.384Z,16.70
2022-08-18T06:35:52.978Z,16.70
2022-08-18T06:38:55.734Z,16.70
2022-08-18T06:41:41.858Z,16.80
2022-08-18T06:44:22.153Z,16.80
2022-08-18T06:46:56.079Z,17.00
2022-08-18T06:49:47.144Z,17.00
2022-08-18T06:52:27.014Z,17.10
2022-08-18T06:54:56.373Z,17.10
2022-08-18T06:57:36.133Z,17.20
2022-08-18T07:00:20.914Z,17.20
2022-08-18T07:02:55.171Z,17.30
2022-08-18T07:05:33.492Z,17.40
2022-08-18T07:08:06.655Z,17.50
2022-08-18T07:10:37.698Z,17.60
2022-08-18T07:13:13.625Z,17.60
2022-08-18T07:15:41.436Z,17.70
2022-08-18T07:18:14.547Z,17.70
2022-08-18T07:21:00.806Z,17.80
2022-08-18T07:23:34.110Z,18.00
2022-08-18T07:26:09.746Z,18.10
2022-08-18T07:28:49.976Z,18.00
2022-08-18T07:31:25.212Z,18.10
2022-08-18T07:34:01.872Z,18.20
2022-08-18T07:36:34.111Z,18.30
2022-08-18T07:39:19.516Z,18.30
2022-08-18T07:41:54.374Z,18.50
2022-08-18T07:44:53.806Z,18.60
2022-08-18T07:47:25.884Z,18.60
2022-08-18T07:50:17.042Z,18.60
2022-08-18T07:53:10.004Z,18.80
2022-08-18T07:55:36.958Z,18.80
2022-08-18T07:58:28.170Z,18.90
2022-08-18T08:01:03.495Z,18.90
2022-08-18T08:03:33.150Z,19.00
2022-08-18T08:06:29.172Z,19.10
2022-08-18T08:09:34.505Z,19.30
2022-08-18T08:12:09.859Z,19.30
2022-08-18T08:14:45.894Z,19.50
2022-08-18T08:17:56.354Z,19.50
2022-08-18T08:20:32.687Z,19.70
2022-08-18T08:23:17.525Z,19.70
2022-08-18T08:25:56.912Z,19.80
2022-08-18T08:28:55.663Z,19.80
2022-08-18T08:31:37.027Z,19.90
2022-08-18T08:34:28.845Z,19.90
2022-08-18T08:37:04.576Z,19.90
2022-08-18T08:39:39.821Z,19.80
2022-08-18T08:42:31.744Z,19.80
2022-08-18T08:45:24.022Z,19.80
2022-08-18T08:48:08.985Z,19.90
2022-08-18T08:50:55.701Z,20.00
2022-08-18T08:53:35.678Z,20.10
2022-08-18T08:56:07.281Z,20.30
2022-08-18T08:58:43.483Z,20.60
2022-08-18T09:01:16.172Z,20.70
2022-08-18T09:03:56.216Z,20.80
2022-08-18T09:06:57.169Z,20.90
2022-08-18T09:09:32.900Z,21.10
2022-08-18T09:12:25.649Z,21.30
2022-08-18T09:15:07.530Z,21.30
2022-08-18T09:18:12.994Z,21.30
2022-08-18T09:20:49.366Z,21.20
2022-08-18T09:23:24.314Z,21.20
2022-08-18T09:25:53.882Z,21.30
2022-08-18T09:28:28.455Z,21.30
2022-08-18T09:31:08.844Z,21.50
2022-08-18T09:33:45.786Z,21.60
2022-08-18T09:36:43.527Z,21.70
2022-08-18T09:39:54.800Z,21.70
2022-08-18T09:42:32.915Z,21.70
2022-08-18T09:45:34.066Z,21.90
2022-08-18T09:48:08.748Z,22.00
2022-08-18T09:50:58.138Z,22.00
2022-08-18T09:53:39.722Z,22.10
2022-08-18T09:56:06.728Z,22.30
2022-08-18T09:59:00.439Z,22.40
2022-08-18T10:01:30.423Z,22.40
2022-08-18T10:04:15.784Z,22.50
2022-08-18T10:06:49.088Z,22.50
2022-08-18T10:09:37.381Z,22.60
2022-08-18T10:12:15.799Z,22.60
2022-08-18T10:15:03.988Z,22.70
2022-08-18T10:21:01.958Z,22.60
2022-08-18T10:24:07.962Z,22.60
2022-08-18T10:26:39.118Z,22.70
2022-08-18T10:29:24.091Z,22.80
2022-08-18T10:34:52.197Z,22.70
2022-08-18T10:37:39.227Z,22.80
2022-08-18T10:40:09.343Z,23.00
2022-08-18T10:42:53.483Z,23.20
2022-08-18T10:45:31.960Z,23.30
2022-08-18T10:48:24.458Z,23.40
2022-08-18T10:51:12.431Z,23.50
2022-08-18T10:54:08.229Z,23.60
2022-08-18T10:56:41.886Z,23.70
2022-08-18T10:59:29.695Z,23.70
2022-08-18T11:02:15.524Z,23.60
2022-08-18T11:04:58.641Z,23.60
2022-08-18T11:07:34.117Z,23.60
2022-08-18T11:10:32.334Z,23.70
2022-08-18T11:13:13.860Z,23.70
2022-08-18T11:15:53.009Z,23.80
2022-08-18T11:24:32.045Z,24.20
2022-08-18T11:27:09.867Z,24.30
2022-08-18T11:29:42.911Z,24.40
2022-08-18T11:32:14.092Z,24.50
2022-08-18T11:34:52.201Z,24.50
2022-08-18T11:37:56.964Z,24.60
2022-08-18T11:41:10.897Z,24.60
2022-08-18T11:43:29.427Z,24.70
2022-08-18T11:45:59.516Z,24.70
2022-08-18T11:48:36.067Z,24.80
2022-08-18T11:51:17.873Z,24.80
2022-08-18T11:53:59.952Z,24.90
2022-08-18T11:56:35.984Z,25.00
2022-08-18T11:59:55.089Z,25.20
2022-08-18T12:02:25.472Z,25.30
2022-08-18T12:04:57.904Z,25.40
2022-08-18T12:07:32.126Z,25.40
2022-08-18T12:10:26.512Z,25.40
2022-08-18T12:12:57.582Z,25.50
2022-08-18T12:15:44.057Z,25.50
2022-08-18T12:18:28.578Z,25.70
2022-08-18T12:23:52.097Z,25.70
2022-08-18T12:26:38.175Z,25.80
2022-08-18T12:29:08.927Z,25.80
2022-08-18T12:31:42.807Z,25.90
2022-08-18T12:34:26.499Z,25.90
2022-08-18T12:36:58.498Z,26.00
2022-08-18T12:39:25.586Z,26.00
2022-08-18T12:41:52.715Z,26.20
2022-08-18T12:44:20.053Z,26.20
2022-08-18T12:46:47.230Z,26.50
2022-08-18T12:49:24.375Z,26.70
2022-08-18T12:51:52.750Z,26.80
2022-08-18T12:54:22.898Z,26.90
2022-08-18T12:56:54.352Z,27.00
2022-08-18T12:59:21.645Z,27.00
2022-08-18T13:01:51.958Z,27.00
2022-08-18T13:04:35.077Z,27.00
2022-08-18T13:07:05.869Z,27.00
2022-08-18T13:09:53.079Z,27.10
2022-08-18T13:12:21.515Z,27.10
2022-08-18T13:14:50.988Z,27.10
2022-08-18T13:17:32.267Z,27.10
2022-08-18T13:20:10.511Z,27.10
2022-08-18T13:22:41.092Z,27.10
2022-08-18T13:25:11.196Z,27.20
2022-08-18T13:27:39.393Z,27.20
2022-08-18T13:30:29.830Z,27.30
2022-08-18T13:33:02.215Z,27.40
2022-08-18T13:35:37.943Z,27.40
2022-08-18T13:38:14.631Z,27.50
2022-08-18T13:40:50.806Z,27.50
2022-08-18T13:43:20.405Z,27.50
2022-08-18T13:45:56.002Z,27.60
2022-08-18T13:48:25.667Z,27.80
2022-08-18T13:50:56.836Z,28.00
2022-08-18T13:53:27.258Z,28.00
2022-08-18T13:55:57.562Z,28.00
2022-08-18T13:58:26.705Z,28.10
2022-08-18T14:01:22.671Z,28.20
2022-08-18T14:03:47.613Z,28.20
2022-08-18T14:06:18.416Z,28.40
2022-08-18T14:08:51.159Z,28.60
2022-08-18T14:11:18.898Z,28.70
2022-08-18T14:13:46.090Z,29.10
2022-08-18T14:16:18.480Z,29.30
2022-08-18T14:19:10.154Z,29.40
2022-08-18T14:22:01.541Z,29.60
2022-08-18T14:24:49.501Z,29.60
2022-08-18T14:27:19.107Z,29.70
2022-08-18T14:29:48.758Z,29.90
2022-08-18T14:32:28.491Z,29.90
2022-08-18T14:35:13.064Z,29.90
2022-08-18T14:37:47.907Z,29.90
2022-08-18T14:40:15.340Z,30.00
2022-08-18T14:42:54.387Z,30.10
2022-08-18T14:45:31.736Z,30.20
2022-08-18T14:48:06.451Z,30.30
2022-08-18T14:50:36.149Z,30.40
2022-08-18T14:53:04.848Z,30.70
2022-08-18T14:55:32.438Z,30.80
2022-08-18T14:58:01.279Z,31.00
2022-08-18T15:00:30.190Z,31.20
2022-08-18T15:02:59.521Z,31.40
2022-08-18T15:05:28.002Z,31.50
2022-08-18T15:07:56.333Z,31.50
2022-08-18T15:10:28.239Z,31.70
2022-08-18T15:12:57.779Z,31.80
2022-08-18T15:15:25.620Z,31.80
2022-08-18T15:17:53.243Z,32.10
2022-08-18T15:20:28.861Z,32.10
2022-08-18T15:23:22.841Z,32.10
2022-08-18T15:25:56.448Z,32.10
2022-08-18T15:28:26.409Z,32.00
2022-08-18T15:33:40.342Z,32.40
2022-08-18T15:36:10.250Z,32.60
2022-08-18T15:38:37.351Z,32.70
2022-08-18T15:41:06.176Z,33.00
2022-08-18T15:43:45.794Z,32.90
2022-08-18T15:46:16.756Z,32.90
2022-08-18T15:48:44.230Z,32.80
2022-08-18T15:51:12.142Z,33.10
2022-08-18T15:53:44.596Z,33.10
2022-08-18T15:56:21.317Z,33.40
2022-08-18T15:58:49.773Z,33.40
2022-08-18T16:01:29.713Z,33.60
2022-08-18T16:04:01.194Z,33.70
2022-08-18T16:06:32.414Z,33.90
2022-08-18T16:09:01.389Z,33.90
2022-08-18T16:11:29.589Z,34.20
2022-08-18T16:13:58.985Z,34.10
2022-08-18T16:16:35.661Z,34.20
2022-08-18T16:19:05.808Z,34.20
2022-08-18T16:21:33.232Z,34.20
2022-08-18T16:24:00.267Z,34.30
2022-08-18T16:26:27.099Z,34.30
2022-08-18T16:28:54.006Z,34.40
2022-08-18T16:31:26.703Z,34.40
2022-08-18T16:33:57.426Z,34.50
2022-08-18T16:36:30.801Z,34.60
2022-08-18T16:38:58.357Z,34.70
2022-08-18T16:41:26.648Z,34.70
2022-08-18T16:43:53.777Z,34.80
2022-08-18T16:46:25.262Z,34.90
2022-08-18T16:48:55.788Z,35.10
2022-08-18T16:51:24.296Z,34.80
2022-08-18T16:53:53.048Z,34.60
2022-08-18T16:56:25.545Z,34.40
2022-08-18T16:59:11.230Z,34.40
2022-08-18T17:01:57.141Z,34.60
2022-08-18T17:04:29.089Z,34.30
2022-08-18T17:06:56.890Z,34.40
2022-08-18T17:09:24.513Z,34.40
2022-08-18T17:11:52.605Z,34.50
2022-08-18T17:14:21.414Z,34.60
2022-08-18T17:16:54.363Z,34.40
2022-08-18T17:19:30.395Z,34.10
2022-08-18T17:21:57.502Z,34.00
2022-08-18T17:24:32.085Z,33.80
2022-08-18T17:27:19.258Z,33.70
2022-08-18T17:30:16.599Z,33.50
2022-08-18T17:32:52.260Z,33.40
2022-08-18T17:35:29.025Z,33.50
2022-08-18T17:38:19.408Z,33.40
2022-08-18T17:40:51.854Z,33.40
2022-08-18T17:43:21.540Z,33.50
2022-08-18T17:46:18.767Z,33.50
2022-08-18T17:48:53.651Z,33.40
2022-08-18T17:51:35.138Z,33.40
2022-08-18T17:54:08.181Z,33.20
2022-08-18T17:56:43.288Z,33.20
2022-08-18T17:59:46.165Z,33.20
2022-08-18T18:02:29.862Z,33.20
2022-08-18T18:04:58.767Z,32.80
2022-08-18T18:07:38.437Z,32.40
2022-08-18T18:10:05.555Z,32.20
2022-08-18T18:12:36.156Z,32.40
2022-08-18T18:15:09.717Z,32.40
2022-08-18T18:17:39.777Z,32.50
2022-08-18T18:20:36.558Z,32.50
2022-08-18T18:23:21.513Z,32.60
2022-08-18T18:25:48.844Z,32.40
2022-08-18T18:28:34.221Z,32.20
2022-08-18T18:31:17.030Z,32.30
2022-08-18T18:33:44.173Z,32.30
2022-08-18T18:36:11.603Z,32.20
2022-08-18T18:38:49.136Z,32.20
2022-08-18T18:41:27.117Z,32.00
2022-08-18T18:44:10.023Z,31.80
2022-08-18T18:46:45.058Z,31.70
2022-08-18T18:49:14.925Z,31.50
2022-08-18T18:52:07.369Z,31.30
2022-08-18T18:54:39.904Z,31.20
2022-08-18T18:57:14.716Z,31.10
2022-08-18T19:00:13.459Z,31.00
2022-08-18T19:02:57.650Z,30.90
2022-08-18T19:05:34.261Z,30.80
2022-08-18T19:08:24.171Z,30.60
2022-08-18T19:11:41.151Z,30.50
2022-08-18T19:14:13.999Z,30.40
2022-08-18T19:17:03.630Z,30.30
2022-08-18T19:19:41.624Z,30.10
2022-08-18T19:22:18.991Z,30.00
2022-08-18T19:25:19.948Z,29.90
2022-08-18T19:27:52.016Z,29.80
2022-08-18T19:30:21.454Z,29.70
2022-08-18T19:32:56.471Z,29.40
2022-08-18T19:35:40.313Z,29.40
2022-08-18T19:38:25.573Z,29.30
2022-08-18T19:41:13.755Z,29.40
2022-08-18T19:43:51.122Z,29.30
2022-08-18T19:46:20.986Z,29.20
2022-08-18T19:49:01.974Z,29.10
2022-08-18T19:51:33.136Z,29.00
2022-08-18T19:54:26.599Z,29.00
2022-08-18T19:57:12.561Z,28.90
2022-08-18T19:59:45.820Z,28.90
2022-08-18T20:02:25.347Z,28.90
2022-08-18T20:05:18.632Z,28.90
2022-08-18T20:07:52.055Z,28.60
2022-08-18T20:10:30.639Z,28.50
2022-08-18T20:13:13.562Z,28.30
2022-08-18T20:16:10.851Z,28.20
2022-08-18T20:18:41.591Z,28.10
2022-08-18T20:21:11.600Z,27.80
2022-08-18T20:23:56.976Z,27.60
2022-08-18T20:26:37.960Z,27.50
2022-08-18T20:29:14.455Z,27.30
2022-08-18T20:32:21.339Z,27.30
2022-08-18T20:34:51.753Z,27.20
2022-08-18T20:37:22.559Z,26.90
2022-08-18T20:39:58.078Z,26.80
2022-08-18T20:42:25.095Z,26.90
2022-08-18T20:45:22.958Z,26.70
2022-08-18T20:48:07.141Z,26.80
2022-08-18T20:50:52.140Z,26.70
2022-08-18T20:53:41.272Z,26.40
2022-08-18T20:56:43.874Z,26.30
2022-08-18T20:59:23.036Z,26.40
2022-08-18T21:02:08.041Z,26.30
2022-08-18T21:04:53.463Z,26.40
2022-08-18T21:07:37.422Z,26.40
2022-08-18T21:10:33.861Z,26.10
2022-08-18T21:13:06.621Z,26.00
2022-08-18T21:15:36.377Z,26.10
2022-08-18T21:18:06.725Z,26.10
2022-08-18T21:20:34.365Z,26.00
2022-08-18T21:23:11.091Z,26.10
2022-08-18T21:25:51.049Z,26.00
2022-08-18T21:28:18.488Z,25.90
2022-08-18T21:31:41.573Z,25.90
2022-08-18T21:33:53.312Z,25.90
2022-08-18T21:36:20.883Z,25.70
2022-08-18T21:38:58.480Z,25.60
2022-08-18T21:41:33.724Z,25.50
2022-08-18T21:44:05.825Z,25.20
2022-08-18T21:46:33.429Z,25.20
2022-08-18T21:49:04.006Z,25.10
2022-08-18T21:51:47.486Z,24.90
2022-08-18T21:54:20.595Z,24.70
2022-08-18T21:56:47.940Z,24.80
2022-08-18T21:59:20.575Z,24.80
2022-08-18T22:01:56.369Z,24.80
2022-08-18T22:04:32.170Z,24.50
2022-08-18T22:07:07.411Z,24.50
2022-08-18T22:10:18.300Z,24.40
2022-08-18T22:13:12.557Z,24.40
2022-08-18T22:15:42.721Z,24.40
2022-08-18T22:18:18.658Z,24.30
2022-08-18T22:20:48.648Z,24.10
2022-08-18T22:23:33.913Z,24.10
2022-08-18T22:26:12.745Z,23.90
2022-08-18T22:28:55.700Z,24.00
2022-08-18T22:31:23.636Z,23.80
2022-08-18T22:33:51.668Z,23.60
2022-08-18T22:36:21.799Z,23.70
2022-08-18T22:38:49.454Z,23.80
2022-08-18T22:41:17.036Z,23.60
2022-08-18T22:43:44.181Z,23.30
2022-08-18T22:46:11.332Z,23.00
2022-08-18T22:48:38.711Z,23.00
2022-08-18T22:51:05.758Z,22.90
2022-08-18T22:53:32.575Z,22.90
2022-08-18T22:56:05.719Z,23.00
2022-08-18T22:58:32.924Z,22.90
2022-08-18T23:01:05.772Z,22.60
2022-08-18T23:03:37.773Z,22.50
2022-08-18T23:06:09.397Z,22.30
2022-08-18T23:08:54.605Z,22.30
2022-08-18T23:11:24.738Z,22.40
2022-08-18T23:13:51.995Z,22.40
2022-08-18T23:16:31.635Z,22.10
2022-08-18T23:19:03.197Z,22.30
2022-08-18T23:21:34.334Z,22.20
2022-08-18T23:24:04.776Z,22.40
2022-08-18T23:26:31.865Z,22.30
2022-08-18T23:28:58.773Z,22.30
2022-08-18T23:31:25.851Z,22.40
2022-08-18T23:33:52.699Z,22.40
2022-08-18T23:36:19.509Z,22.40
2022-08-18T23:38:46.342Z,22.30
2022-08-18T23:41:15.067Z,22.30
2022-08-18T23:43:42.536Z,22.30
2022-08-18T23:46:28.593Z,22.30
2022-08-18T23:48:57.816Z,22.20
2022-08-18T23:51:26.725Z,22.20
2022-08-18T23:53:56.724Z,22.10
2022-08-18T23:56:23.780Z,22.10
2022-08-18T23:58:56.291Z,22.00
